sensor_id;sensor_type;location;lat;lon;timestamp;P1;durP1;ratioP1;P2;durP2;ratioP2
49728;SDS011;35617;50.714;7.114;2022-10-13T00:01:44;16.25;;;10.80;;
49728;SDS011;35617;50.714;7.114;2022-10-13T00:04:09;18.55;;;12.35;;
49728;SDS011;35617;50.714;7.114;2022-10-13T00:06:35;21.35;;;12.00;;
49728;SDS011;35617;50.714;7.114;2022-10-13T00:09:01;21.70;;;12.05;;
49728;SDS011;35617;50.714;7.114;2022-10-13T00:11:27;20.70;;;12.43;;
49728;SDS011;35617;50.714;7.114;2022-10-13T00:13:55;20.27;;;11.52;;
49728;SDS011;35617;50.714;7.114;2022-10-13T00:16:22;21.10;;;12.38;;
49728;SDS011;35617;50.714;7.114;2022-10-13T00:18:48;21.73;;;13.32;;
49728;SDS011;35617;50.714;7.114;2022-10-13T00:21:16;19.58;;;12.05;;
49728;SDS011;35617;50.714;7.114;2022-10-13T00:23:42;22.10;;;12.40;;
49728;SDS011;35617;50.714;7.114;2022-10-13T00:26:09;22.05;;;12.55;;
49728;SDS011;35617;50.714;7.114;2022-10-13T00:28:36;22.20;;;11.73;;
49728;SDS011;35617;50.714;7.114;2022-10-13T00:31:03;22.75;;;12.43;;
49728;SDS011;35617;50.714;7.114;2022-10-13T00:33:54;20.15;;;11.60;;
49728;SDS011;35617;50.714;7.114;2022-10-13T00:36:22;21.58;;;12.88;;
49728;SDS011;35617;50.714;7.114;2022-10-13T00:38:48;26.80;;;12.73;;
49728;SDS011;35617;50.714;7.114;2022-10-13T00:41:14;19.27;;;11.73;;
49728;SDS011;35617;50.714;7.114;2022-10-13T00:43:51;21.48;;;12.93;;
49728;SDS011;35617;50.714;7.114;2022-10-13T00:46:19;22.13;;;12.25;;
49728;SDS011;35617;50.714;7.114;2022-10-13T00:48:46;23.55;;;12.80;;
49728;SDS011;35617;50.714;7.114;2022-10-13T00:51:15;19.50;;;12.13;;
49728;SDS011;35617;50.714;7.114;2022-10-13T00:53:45;22.85;;;13.10;;
49728;SDS011;35617;50.714;7.114;2022-10-13T00:56:11;21.90;;;12.13;;
49728;SDS011;35617;50.714;7.114;2022-10-13T00:58:39;23.42;;;12.43;;
49728;SDS011;35617;50.714;7.114;2022-10-13T01:01:05;20.67;;;12.63;;
49728;SDS011;35617;50.714;7.114;2022-10-13T01:03:31;22.02;;;12.57;;
49728;SDS011;35617;50.714;7.114;2022-10-13T01:05:58;24.58;;;13.15;;
49728;SDS011;35617;50.714;7.114;2022-10-13T01:08:27;22.13;;;12.38;;
49728;SDS011;35617;50.714;7.114;2022-10-13T01:13:39;18.83;;;12.18;;
49728;SDS011;35617;50.714;7.114;2022-10-13T01:19:03;19.83;;;12.13;;
49728;SDS011;35617;50.714;7.114;2022-10-13T01:35:01;20.85;;;12.20;;
49728;SDS011;35617;50.714;7.114;2022-10-13T01:40:21;20.55;;;12.35;;
49728;SDS011;35617;50.714;7.114;2022-10-13T01:42:54;22.75;;;13.35;;
49728;SDS011;35617;50.714;7.114;2022-10-13T01:45:45;24.25;;;13.10;;
49728;SDS011;35617;50.714;7.114;2022-10-13T01:48:32;20.45;;;13.10;;
49728;SDS011;35617;50.714;7.114;2022-10-13T01:51:00;22.17;;;12.60;;
49728;SDS011;35617;50.714;7.114;2022-10-13T01:53:25;21.15;;;12.45;;
49728;SDS011;35617;50.714;7.114;2022-10-13T01:55:54;21.40;;;12.93;;
49728;SDS011;35617;50.714;7.114;2022-10-13T01:58:22;23.83;;;12.35;;
49728;SDS011;35617;50.714;7.114;2022-10-13T02:06:35;20.95;;;11.90;;
49728;SDS011;35617;50.714;7.114;2022-10-13T02:09:33;20.60;;;12.45;;
49728;SDS011;35617;50.714;7.114;2022-10-13T02:12:15;22.30;;;13.18;;
49728;SDS011;35617;50.714;7.114;2022-10-13T02:14:48;19.30;;;11.75;;
49728;SDS011;35617;50.714;7.114;2022-10-13T02:17:16;20.73;;;12.82;;
49728;SDS011;35617;50.714;7.114;2022-10-13T02:19:41;24.42;;;12.52;;
49728;SDS011;35617;50.714;7.114;2022-10-13T02:22:08;21.17;;;12.93;;
49728;SDS011;35617;50.714;7.114;2022-10-13T02:24:37;23.02;;;12.05;;
49728;SDS011;35617;50.714;7.114;2022-10-13T02:27:04;22.63;;;11.65;;
49728;SDS011;35617;50.714;7.114;2022-10-13T02:29:30;21.13;;;12.40;;
49728;SDS011;35617;50.714;7.114;2022-10-13T02:31:56;22.90;;;12.27;;
49728;SDS011;35617;50.714;7.114;2022-10-13T02:34:22;26.75;;;14.30;;
49728;SDS011;35617;50.714;7.114;2022-10-13T02:36:47;21.85;;;13.23;;
49728;SDS011;35617;50.714;7.114;2022-10-13T02:39:13;23.17;;;12.68;;
49728;SDS011;35617;50.714;7.114;2022-10-13T02:41:39;21.95;;;12.45;;
49728;SDS011;35617;50.714;7.114;2022-10-13T02:44:05;25.02;;;12.98;;
49728;SDS011;35617;50.714;7.114;2022-10-13T02:46:31;21.13;;;12.48;;
49728;SDS011;35617;50.714;7.114;2022-10-13T02:48:56;20.45;;;12.88;;
49728;SDS011;35617;50.714;7.114;2022-10-13T02:51:22;23.58;;;12.52;;
49728;SDS011;35617;50.714;7.114;2022-10-13T02:53:47;22.83;;;13.32;;
49728;SDS011;35617;50.714;7.114;2022-10-13T02:56:13;24.35;;;13.45;;
49728;SDS011;35617;50.714;7.114;2022-10-13T02:58:39;20.13;;;12.00;;
49728;SDS011;35617;50.714;7.114;2022-10-13T03:01:09;22.63;;;12.95;;
49728;SDS011;35617;50.714;7.114;2022-10-13T03:03:36;22.92;;;13.05;;
49728;SDS011;35617;50.714;7.114;2022-10-13T03:06:02;21.40;;;12.68;;
49728;SDS011;35617;50.714;7.114;2022-10-13T03:08:28;23.52;;;13.43;;
49728;SDS011;35617;50.714;7.114;2022-10-13T03:10:55;24.25;;;13.20;;
49728;SDS011;35617;50.714;7.114;2022-10-13T03:13:21;21.83;;;13.45;;
49728;SDS011;35617;50.714;7.114;2022-10-13T03:15:47;22.13;;;13.25;;
49728;SDS011;35617;50.714;7.114;2022-10-13T03:18:13;25.25;;;13.38;;
49728;SDS011;35617;50.714;7.114;2022-10-13T03:20:38;23.88;;;13.32;;
49728;SDS011;35617;50.714;7.114;2022-10-13T03:23:04;20.67;;;13.38;;
49728;SDS011;35617;50.714;7.114;2022-10-13T03:25:31;23.98;;;13.38;;
49728;SDS011;35617;50.714;7.114;2022-10-13T03:27:57;22.88;;;13.85;;
49728;SDS011;35617;50.714;7.114;2022-10-13T03:30:23;23.27;;;13.88;;
49728;SDS011;35617;50.714;7.114;2022-10-13T03:32:48;23.98;;;13.50;;
49728;SDS011;35617;50.714;7.114;2022-10-13T03:35:14;25.02;;;14.38;;
49728;SDS011;35617;50.714;7.114;2022-10-13T03:37:40;22.15;;;13.35;;
49728;SDS011;35617;50.714;7.114;2022-10-13T03:40:05;24.02;;;14.18;;
49728;SDS011;35617;50.714;7.114;2022-10-13T03:42:34;23.65;;;14.05;;
49728;SDS011;35617;50.714;7.114;2022-10-13T03:45:00;24.60;;;13.90;;
49728;SDS011;35617;50.714;7.114;2022-10-13T03:47:26;23.65;;;13.73;;
49728;SDS011;35617;50.714;7.114;2022-10-13T03:49:52;30.23;;;14.45;;
49728;SDS011;35617;50.714;7.114;2022-10-13T03:52:19;23.67;;;13.95;;
49728;SDS011;35617;50.714;7.114;2022-10-13T03:54:45;25.42;;;13.15;;
49728;SDS011;35617;50.714;7.114;2022-10-13T03:57:10;24.75;;;13.45;;
49728;SDS011;35617;50.714;7.114;2022-10-13T03:59:38;22.15;;;14.27;;
49728;SDS011;35617;50.714;7.114;2022-10-13T04:02:06;25.35;;;13.75;;
49728;SDS011;35617;50.714;7.114;2022-10-13T04:04:32;22.55;;;13.98;;
49728;SDS011;35617;50.714;7.114;2022-10-13T04:06:59;24.02;;;14.00;;
49728;SDS011;35617;50.714;7.114;2022-10-13T04:09:25;22.30;;;13.15;;
49728;SDS011;35617;50.714;7.114;2022-10-13T04:11:51;22.77;;;13.60;;
49728;SDS011;35617;50.714;7.114;2022-10-13T04:14:17;21.98;;;13.52;;
49728;SDS011;35617;50.714;7.114;2022-10-13T04:16:44;21.50;;;13.30;;
49728;SDS011;35617;50.714;7.114;2022-10-13T04:19:10;21.85;;;12.80;;
49728;SDS011;35617;50.714;7.114;2022-10-13T04:21:37;22.25;;;13.40;;
49728;SDS011;35617;50.714;7.114;2022-10-13T04:24:03;23.95;;;13.27;;
49728;SDS011;35617;50.714;7.114;2022-10-13T04:26:30;23.08;;;13.27;;
49728;SDS011;35617;50.714;7.114;2022-10-13T04:28:58;22.67;;;12.68;;
49728;SDS011;35617;50.714;7.114;2022-10-13T04:31:24;22.52;;;12.95;;
49728;SDS011;35617;50.714;7.114;2022-10-13T04:33:52;19.45;;;13.15;;
49728;SDS011;35617;50.714;7.114;2022-10-13T04:36:17;23.40;;;13.48;;
49728;SDS011;35617;50.714;7.114;2022-10-13T04:38:43;21.27;;;11.93;;
49728;SDS011;35617;50.714;7.114;2022-10-13T04:41:10;22.58;;;13.40;;
49728;SDS011;35617;50.714;7.114;2022-10-13T04:43:36;21.88;;;12.35;;
49728;SDS011;35617;50.714;7.114;2022-10-13T04:46:02;21.75;;;12.93;;
49728;SDS011;35617;50.714;7.114;2022-10-13T04:48:30;21.20;;;12.23;;
49728;SDS011;35617;50.714;7.114;2022-10-13T04:51:03;20.05;;;11.90;;
49728;SDS011;35617;50.714;7.114;2022-10-13T04:53:30;20.08;;;12.02;;
49728;SDS011;35617;50.714;7.114;2022-10-13T04:55:59;18.77;;;11.73;;
49728;SDS011;35617;50.714;7.114;2022-10-13T04:58:26;19.80;;;11.35;;
49728;SDS011;35617;50.714;7.114;2022-10-13T05:00:52;19.95;;;10.45;;
49728;SDS011;35617;50.714;7.114;2022-10-13T05:03:18;18.88;;;10.48;;
49728;SDS011;35617;50.714;7.114;2022-10-13T05:05:43;18.60;;;10.88;;
49728;SDS011;35617;50.714;7.114;2022-10-13T05:08:09;19.05;;;9.85;;
49728;SDS011;35617;50.714;7.114;2022-10-13T05:10:34;19.25;;;10.23;;
49728;SDS011;35617;50.714;7.114;2022-10-13T05:13:00;19.05;;;10.77;;
49728;SDS011;35617;50.714;7.114;2022-10-13T05:15:26;17.48;;;10.35;;
49728;SDS011;35617;50.714;7.114;2022-10-13T05:17:51;15.80;;;10.30;;
49728;SDS011;35617;50.714;7.114;2022-10-13T05:20:17;17.63;;;10.05;;
49728;SDS011;35617;50.714;7.114;2022-10-13T05:22:42;16.45;;;9.93;;
49728;SDS011;35617;50.714;7.114;2022-10-13T05:25:08;18.88;;;9.90;;
49728;SDS011;35617;50.714;7.114;2022-10-13T05:27:34;20.15;;;11.60;;
49728;SDS011;35617;50.714;7.114;2022-10-13T05:29:59;18.20;;;10.02;;
49728;SDS011;35617;50.714;7.114;2022-10-13T05:32:25;22.85;;;11.07;;
49728;SDS011;35617;50.714;7.114;2022-10-13T05:34:51;17.42;;;10.88;;
49728;SDS011;35617;50.714;7.114;2022-10-13T05:37:16;22.35;;;11.32;;
49728;SDS011;35617;50.714;7.114;2022-10-13T05:39:42;19.02;;;11.07;;
49728;SDS011;35617;50.714;7.114;2022-10-13T05:42:08;16.88;;;10.40;;
49728;SDS011;35617;50.714;7.114;2022-10-13T05:44:35;19.15;;;10.43;;
49728;SDS011;35617;50.714;7.114;2022-10-13T05:47:01;18.42;;;10.90;;
49728;SDS011;35617;50.714;7.114;2022-10-13T05:49:28;22.00;;;11.35;;
49728;SDS011;35617;50.714;7.114;2022-10-13T05:51:58;18.30;;;11.25;;
49728;SDS011;35617;50.714;7.114;2022-10-13T05:54:32;21.43;;;12.03;;
49728;SDS011;35617;50.714;7.114;2022-10-13T05:57:06;20.17;;;11.75;;
49728;SDS011;35617;50.714;7.114;2022-10-13T05:59:40;18.52;;;11.25;;
49728;SDS011;35617;50.714;7.114;2022-10-13T06:02:12;18.65;;;11.13;;
49728;SDS011;35617;50.714;7.114;2022-10-13T06:04:41;19.75;;;11.32;;
49728;SDS011;35617;50.714;7.114;2022-10-13T06:07:13;17.98;;;11.40;;
49728;SDS011;35617;50.714;7.114;2022-10-13T06:09:39;16.40;;;11.43;;
49728;SDS011;35617;50.714;7.114;2022-10-13T06:12:06;19.35;;;11.27;;
49728;SDS011;35617;50.714;7.114;2022-10-13T06:14:32;20.38;;;11.95;;
49728;SDS011;35617;50.714;7.114;2022-10-13T06:16:58;20.25;;;12.05;;
49728;SDS011;35617;50.714;7.114;2022-10-13T06:19:24;21.67;;;12.35;;
49728;SDS011;35617;50.714;7.114;2022-10-13T06:21:49;21.08;;;12.10;;
49728;SDS011;35617;50.714;7.114;2022-10-13T06:24:15;22.67;;;12.75;;
49728;SDS011;35617;50.714;7.114;2022-10-13T06:26:41;20.25;;;12.63;;
49728;SDS011;35617;50.714;7.114;2022-10-13T06:29:06;31.65;;;14.73;;
49728;SDS011;35617;50.714;7.114;2022-10-13T06:31:32;22.67;;;13.60;;
49728;SDS011;35617;50.714;7.114;2022-10-13T06:33:58;21.65;;;13.02;;
49728;SDS011;35617;50.714;7.114;2022-10-13T06:36:23;20.48;;;13.05;;
49728;SDS011;35617;50.714;7.114;2022-10-13T06:38:49;21.52;;;12.13;;
49728;SDS011;35617;50.714;7.114;2022-10-13T06:41:15;20.40;;;12.02;;
49728;SDS011;35617;50.714;7.114;2022-10-13T06:43:41;21.50;;;11.98;;
49728;SDS011;35617;50.714;7.114;2022-10-13T06:46:06;18.63;;;12.00;;
49728;SDS011;35617;50.714;7.114;2022-10-13T06:48:32;21.42;;;11.60;;
49728;SDS011;35617;50.714;7.114;2022-10-13T06:51:02;22.38;;;12.90;;
49728;SDS011;35617;50.714;7.114;2022-10-13T06:53:30;19.48;;;11.93;;
49728;SDS011;35617;50.714;7.114;2022-10-13T06:55:57;20.05;;;11.60;;
49728;SDS011;35617;50.714;7.114;2022-10-13T06:58:23;20.30;;;11.80;;
49728;SDS011;35617;50.714;7.114;2022-10-13T07:00:49;38.15;;;15.35;;
49728;SDS011;35617;50.714;7.114;2022-10-13T07:03:15;29.60;;;13.95;;
49728;SDS011;35617;50.714;7.114;2022-10-13T07:05:41;22.77;;;12.90;;
49728;SDS011;35617;50.714;7.114;2022-10-13T07:08:06;19.83;;;13.15;;
49728;SDS011;35617;50.714;7.114;2022-10-13T07:10:32;20.83;;;12.15;;
49728;SDS011;35617;50.714;7.114;2022-10-13T07:12:57;19.95;;;12.45;;
49728;SDS011;35617;50.714;7.114;2022-10-13T07:15:23;21.88;;;12.70;;
49728;SDS011;35617;50.714;7.114;2022-10-13T07:17:52;20.90;;;12.68;;
49728;SDS011;35617;50.714;7.114;2022-10-13T07:20:19;19.05;;;12.45;;
49728;SDS011;35617;50.714;7.114;2022-10-13T07:22:45;24.90;;;12.20;;
49728;SDS011;35617;50.714;7.114;2022-10-13T07:25:11;24.08;;;12.82;;
49728;SDS011;35617;50.714;7.114;2022-10-13T07:27:37;21.33;;;12.38;;
49728;SDS011;35617;50.714;7.114;2022-10-13T07:30:05;20.67;;;12.07;;
49728;SDS011;35617;50.714;7.114;2022-10-13T07:32:32;18.02;;;12.07;;
49728;SDS011;35617;50.714;7.114;2022-10-13T07:34:58;21.05;;;12.05;;
49728;SDS011;35617;50.714;7.114;2022-10-13T07:37:24;21.98;;;11.77;;
49728;SDS011;35617;50.714;7.114;2022-10-13T07:39:50;20.90;;;12.05;;
49728;SDS011;35617;50.714;7.114;2022-10-13T07:42:16;21.77;;;12.30;;
49728;SDS011;35617;50.714;7.114;2022-10-13T07:44:42;21.48;;;12.93;;
49728;SDS011;35617;50.714;7.114;2022-10-13T07:47:07;18.40;;;12.23;;
49728;SDS011;35617;50.714;7.114;2022-10-13T07:49:33;20.60;;;12.65;;
49728;SDS011;35617;50.714;7.114;2022-10-13T07:51:59;23.90;;;12.80;;
49728;SDS011;35617;50.714;7.114;2022-10-13T07:54:24;21.60;;;12.48;;
49728;SDS011;35617;50.714;7.114;2022-10-13T07:56:50;19.42;;;12.07;;
49728;SDS011;35617;50.714;7.114;2022-10-13T07:59:17;21.90;;;12.15;;
49728;SDS011;35617;50.714;7.114;2022-10-13T08:01:43;20.95;;;12.60;;
49728;SDS011;35617;50.714;7.114;2022-10-13T08:04:08;23.50;;;11.85;;
49728;SDS011;35617;50.714;7.114;2022-10-13T08:06:34;21.45;;;12.95;;
49728;SDS011;35617;50.714;7.114;2022-10-13T08:09:00;20.83;;;11.27;;
49728;SDS011;35617;50.714;7.114;2022-10-13T08:11:27;17.92;;;11.80;;
49728;SDS011;35617;50.714;7.114;2022-10-13T08:13:53;20.42;;;11.23;;
49728;SDS011;35617;50.714;7.114;2022-10-13T08:16:20;18.77;;;11.45;;
49728;SDS011;35617;50.714;7.114;2022-10-13T08:18:47;18.67;;;11.52;;
49728;SDS011;35617;50.714;7.114;2022-10-13T08:21:14;23.73;;;11.93;;
49728;SDS011;35617;50.714;7.114;2022-10-13T08:23:41;19.52;;;11.60;;
49728;SDS011;35617;50.714;7.114;2022-10-13T08:26:13;20.38;;;11.88;;
49728;SDS011;35617;50.714;7.114;2022-10-13T08:28:40;19.88;;;11.77;;
49728;SDS011;35617;50.714;7.114;2022-10-13T08:31:06;19.05;;;11.50;;
49728;SDS011;35617;50.714;7.114;2022-10-13T08:33:32;21.10;;;11.88;;
49728;SDS011;35617;50.714;7.114;2022-10-13T08:35:57;17.38;;;11.25;;
49728;SDS011;35617;50.714;7.114;2022-10-13T08:38:23;22.88;;;11.18;;
49728;SDS011;35617;50.714;7.114;2022-10-13T08:40:49;22.02;;;11.40;;
49728;SDS011;35617;50.714;7.114;2022-10-13T08:43:16;19.65;;;10.68;;
49728;SDS011;35617;50.714;7.114;2022-10-13T08:45:44;20.20;;;11.70;;
49728;SDS011;35617;50.714;7.114;2022-10-13T08:48:22;17.10;;;10.35;;
49728;SDS011;35617;50.714;7.114;2022-10-13T08:50:53;17.13;;;11.07;;
49728;SDS011;35617;50.714;7.114;2022-10-13T08:53:33;20.67;;;10.68;;
49728;SDS011;35617;50.714;7.114;2022-10-13T08:56:14;17.27;;;10.23;;
49728;SDS011;35617;50.714;7.114;2022-10-13T08:58:44;22.85;;;10.25;;
49728;SDS011;35617;50.714;7.114;2022-10-13T09:01:16;18.35;;;10.10;;
49728;SDS011;35617;50.714;7.114;2022-10-13T09:03:46;20.00;;;10.60;;
49728;SDS011;35617;50.714;7.114;2022-10-13T09:11:25;19.45;;;11.20;;
49728;SDS011;35617;50.714;7.114;2022-10-13T09:14:15;15.45;;;10.27;;
49728;SDS011;35617;50.714;7.114;2022-10-13T09:16:52;19.00;;;11.43;;
49728;SDS011;35617;50.714;7.114;2022-10-13T09:19:26;17.65;;;10.15;;
49728;SDS011;35617;50.714;7.114;2022-10-13T09:21:56;20.08;;;10.55;;
49728;SDS011;35617;50.714;7.114;2022-10-13T09:24:42;16.38;;;10.23;;
49728;SDS011;35617;50.714;7.114;2022-10-13T09:27:13;17.48;;;10.43;;
49728;SDS011;35617;50.714;7.114;2022-10-13T09:29:41;16.65;;;10.95;;
49728;SDS011;35617;50.714;7.114;2022-10-13T09:32:12;20.35;;;10.25;;
49728;SDS011;35617;50.714;7.114;2022-10-13T09:34:40;20.30;;;10.18;;
49728;SDS011;35617;50.714;7.114;2022-10-13T09:37:15;15.82;;;10.00;;
49728;SDS011;35617;50.714;7.114;2022-10-13T09:39:42;17.13;;;10.35;;
49728;SDS011;35617;50.714;7.114;2022-10-13T09:42:22;15.27;;;10.48;;
49728;SDS011;35617;50.714;7.114;2022-10-13T09:44:59;19.10;;;10.13;;
49728;SDS011;35617;50.714;7.114;2022-10-13T09:47:35;15.48;;;9.38;;
49728;SDS011;35617;50.714;7.114;2022-10-13T09:50:23;19.25;;;9.55;;
49728;SDS011;35617;50.714;7.114;2022-10-13T09:53:21;14.55;;;8.13;;
49728;SDS011;35617;50.714;7.114;2022-10-13T09:56:05;18.08;;;9.57;;
49728;SDS011;35617;50.714;7.114;2022-10-13T09:58:35;14.02;;;8.30;;
49728;SDS011;35617;50.714;7.114;2022-10-13T10:01:03;15.80;;;7.75;;
49728;SDS011;35617;50.714;7.114;2022-10-13T10:03:33;14.10;;;7.45;;
49728;SDS011;35617;50.714;7.114;2022-10-13T10:06:03;17.35;;;8.23;;
49728;SDS011;35617;50.714;7.114;2022-10-13T10:08:39;14.32;;;8.27;;
49728;SDS011;35617;50.714;7.114;2022-10-13T10:11:19;14.02;;;8.13;;
49728;SDS011;35617;50.714;7.114;2022-10-13T10:14:20;12.05;;;6.68;;
49728;SDS011;35617;50.714;7.114;2022-10-13T10:22:35;13.77;;;7.43;;
49728;SDS011;35617;50.714;7.114;2022-10-13T10:28:14;15.10;;;7.35;;
49728;SDS011;35617;50.714;7.114;2022-10-13T10:34:20;12.32;;;6.60;;
49728;SDS011;35617;50.714;7.114;2022-10-13T10:37:02;11.57;;;6.75;;
49728;SDS011;35617;50.714;7.114;2022-10-13T10:45:52;13.45;;;6.85;;
49728;SDS011;35617;50.714;7.114;2022-10-13T10:48:03;13.05;;;7.03;;
49728;SDS011;35617;50.714;7.114;2022-10-13T10:50:38;11.80;;;6.53;;
49728;SDS011;35617;50.714;7.114;2022-10-13T11:03:56;13.95;;;7.10;;
49728;SDS011;35617;50.714;7.114;2022-10-13T11:06:35;12.38;;;6.63;;
49728;SDS011;35617;50.714;7.114;2022-10-13T11:09:02;17.65;;;11.80;;
49728;SDS011;35617;50.714;7.114;2022-10-13T11:11:30;16.20;;;9.75;;
49728;SDS011;35617;50.714;7.114;2022-10-13T11:16:30;13.52;;;6.47;;
49728;SDS011;35617;50.714;7.114;2022-10-13T11:19:03;10.80;;;6.15;;
49728;SDS011;35617;50.714;7.114;2022-10-13T11:27:01;12.80;;;6.43;;
49728;SDS011;35617;50.714;7.114;2022-10-13T11:29:55;13.85;;;6.43;;
49728;SDS011;35617;50.714;7.114;2022-10-13T11:37:22;12.63;;;6.15;;
49728;SDS011;35617;50.714;7.114;2022-10-13T11:43:17;9.65;;;6.05;;
49728;SDS011;35617;50.714;7.114;2022-10-13T11:46:17;10.55;;;5.70;;
49728;SDS011;35617;50.714;7.114;2022-10-13T11:56:52;10.82;;;5.55;;
49728;SDS011;35617;50.714;7.114;2022-10-13T11:59:26;8.02;;;4.78;;
49728;SDS011;35617;50.714;7.114;2022-10-13T12:01:58;10.65;;;5.20;;
49728;SDS011;35617;50.714;7.114;2022-10-13T12:04:30;9.27;;;4.85;;
49728;SDS011;35617;50.714;7.114;2022-10-13T12:07:01;9.15;;;4.88;;
49728;SDS011;35617;50.714;7.114;2022-10-13T12:09:31;8.68;;;4.50;;
49728;SDS011;35617;50.714;7.114;2022-10-13T12:12:00;9.35;;;4.88;;
49728;SDS011;35617;50.714;7.114;2022-10-13T12:14:37;8.02;;;5.00;;
49728;SDS011;35617;50.714;7.114;2022-10-13T12:17:17;10.25;;;4.82;;
49728;SDS011;35617;50.714;7.114;2022-10-13T12:19:50;8.93;;;4.53;;
49728;SDS011;35617;50.714;7.114;2022-10-13T12:22:16;8.98;;;4.68;;
49728;SDS011;35617;50.714;7.114;2022-10-13T12:24:42;9.77;;;4.78;;
49728;SDS011;35617;50.714;7.114;2022-10-13T12:27:29;9.20;;;4.70;;
49728;SDS011;35617;50.714;7.114;2022-10-13T12:29:59;10.90;;;5.13;;
49728;SDS011;35617;50.714;7.114;2022-10-13T12:32:27;10.23;;;4.90;;
49728;SDS011;35617;50.714;7.114;2022-10-13T12:34:54;11.00;;;5.57;;
49728;SDS011;35617;50.714;7.114;2022-10-13T12:37:31;8.20;;;4.93;;
49728;SDS011;35617;50.714;7.114;2022-10-13T12:39:58;9.27;;;4.95;;
49728;SDS011;35617;50.714;7.114;2022-10-13T12:42:27;12.15;;;5.32;;
49728;SDS011;35617;50.714;7.114;2022-10-13T12:44:55;10.13;;;5.47;;
49728;SDS011;35617;50.714;7.114;2022-10-13T12:47:39;11.00;;;5.57;;
49728;SDS011;35617;50.714;7.114;2022-10-13T12:52:54;10.20;;;5.60;;
49728;SDS011;35617;50.714;7.114;2022-10-13T12:55:29;9.70;;;5.57;;
49728;SDS011;35617;50.714;7.114;2022-10-13T12:57:55;9.80;;;5.43;;
49728;SDS011;35617;50.714;7.114;2022-10-13T13:00:22;10.80;;;5.63;;
49728;SDS011;35617;50.714;7.114;2022-10-13T13:02:56;10.95;;;5.47;;
49728;SDS011;35617;50.714;7.114;2022-10-13T13:05:28;11.65;;;6.30;;
49728;SDS011;35617;50.714;7.114;2022-10-13T13:07:57;9.68;;;5.68;;
49728;SDS011;35617;50.714;7.114;2022-10-13T13:10:22;10.82;;;5.88;;
49728;SDS011;35617;50.714;7.114;2022-10-13T13:12:48;9.40;;;5.65;;
49728;SDS011;35617;50.714;7.114;2022-10-13T13:17:50;11.23;;;6.18;;
49728;SDS011;35617;50.714;7.114;2022-10-13T13:20:27;10.30;;;5.65;;
49728;SDS011;35617;50.714;7.114;2022-10-13T13:22:55;11.40;;;6.68;;
49728;SDS011;35617;50.714;7.114;2022-10-13T13:25:21;12.43;;;6.03;;
49728;SDS011;35617;50.714;7.114;2022-10-13T13:27:47;11.48;;;6.40;;
49728;SDS011;35617;50.714;7.114;2022-10-13T13:30:15;9.30;;;6.80;;
49728;SDS011;35617;50.714;7.114;2022-10-13T13:32:43;9.77;;;6.70;;
49728;SDS011;35617;50.714;7.114;2022-10-13T13:35:09;12.18;;;6.57;;
49728;SDS011;35617;50.714;7.114;2022-10-13T13:37:38;11.70;;;6.57;;
49728;SDS011;35617;50.714;7.114;2022-10-13T13:40:19;12.38;;;6.18;;
49728;SDS011;35617;50.714;7.114;2022-10-13T13:42:46;11.57;;;6.78;;
49728;SDS011;35617;50.714;7.114;2022-10-13T13:45:13;14.20;;;6.93;;
49728;SDS011;35617;50.714;7.114;2022-10-13T13:47:40;12.38;;;7.30;;
49728;SDS011;35617;50.714;7.114;2022-10-13T13:50:09;10.88;;;6.82;;
49728;SDS011;35617;50.714;7.114;2022-10-13T13:52:44;14.23;;;6.95;;
49728;SDS011;35617;50.714;7.114;2022-10-13T13:55:10;10.27;;;6.97;;
49728;SDS011;35617;50.714;7.114;2022-10-13T13:57:35;12.20;;;7.47;;
49728;SDS011;35617;50.714;7.114;2022-10-13T14:00:01;10.48;;;7.40;;
49728;SDS011;35617;50.714;7.114;2022-10-13T14:02:28;14.02;;;7.47;;
49728;SDS011;35617;50.714;7.114;2022-10-13T14:04:54;13.10;;;7.65;;
49728;SDS011;35617;50.714;7.114;2022-10-13T14:07:20;15.38;;;8.13;;
49728;SDS011;35617;50.714;7.114;2022-10-13T14:09:45;13.18;;;7.65;;
49728;SDS011;35617;50.714;7.114;2022-10-13T14:12:11;13.50;;;8.40;;
49728;SDS011;35617;50.714;7.114;2022-10-13T14:14:36;12.18;;;7.22;;
49728;SDS011;35617;50.714;7.114;2022-10-13T14:17:02;12.65;;;7.53;;
49728;SDS011;35617;50.714;7.114;2022-10-13T14:19:29;11.75;;;7.05;;
49728;SDS011;35617;50.714;7.114;2022-10-13T14:21:56;13.15;;;7.93;;
49728;SDS011;35617;50.714;7.114;2022-10-13T14:24:21;11.80;;;7.60;;
49728;SDS011;35617;50.714;7.114;2022-10-13T14:26:47;12.25;;;7.60;;
49728;SDS011;35617;50.714;7.114;2022-10-13T14:29:13;16.40;;;7.15;;
49728;SDS011;35617;50.714;7.114;2022-10-13T14:31:40;11.32;;;6.82;;
49728;SDS011;35617;50.714;7.114;2022-10-13T14:34:06;12.20;;;8.02;;
49728;SDS011;35617;50.714;7.114;2022-10-13T14:36:31;10.70;;;7.35;;
49728;SDS011;35617;50.714;7.114;2022-10-13T14:38:57;14.43;;;7.32;;
49728;SDS011;35617;50.714;7.114;2022-10-13T14:41:23;13.35;;;6.97;;
49728;SDS011;35617;50.714;7.114;2022-10-13T14:43:52;13.02;;;7.00;;
49728;SDS011;35617;50.714;7.114;2022-10-13T14:46:18;11.98;;;7.78;;
49728;SDS011;35617;50.714;7.114;2022-10-13T14:48:44;9.65;;;7.10;;
49728;SDS011;35617;50.714;7.114;2022-10-13T14:51:10;12.82;;;7.88;;
49728;SDS011;35617;50.714;7.114;2022-10-13T14:53:36;12.30;;;7.38;;
49728;SDS011;35617;50.714;7.114;2022-10-13T14:56:12;13.00;;;6.80;;
49728;SDS011;35617;50.714;7.114;2022-10-13T14:58:41;12.65;;;7.60;;
49728;SDS011;35617;50.714;7.114;2022-10-13T15:01:06;11.38;;;7.82;;
49728;SDS011;35617;50.714;7.114;2022-10-13T15:03:32;11.60;;;7.10;;
49728;SDS011;35617;50.714;7.114;2022-10-13T15:05:58;12.10;;;7.15;;
49728;SDS011;35617;50.714;7.114;2022-10-13T15:08:23;12.70;;;7.25;;
49728;SDS011;35617;50.714;7.114;2022-10-13T15:10:57;12.43;;;7.40;;
49728;SDS011;35617;50.714;7.114;2022-10-13T15:13:28;12.05;;;7.47;;
49728;SDS011;35617;50.714;7.114;2022-10-13T15:15:55;14.30;;;7.00;;
49728;SDS011;35617;50.714;7.114;2022-10-13T15:18:21;13.15;;;7.45;;
49728;SDS011;35617;50.714;7.114;2022-10-13T15:20:47;11.15;;;7.30;;
49728;SDS011;35617;50.714;7.114;2022-10-13T15:23:13;12.13;;;7.40;;
49728;SDS011;35617;50.714;7.114;2022-10-13T15:25:40;14.20;;;8.77;;
49728;SDS011;35617;50.714;7.114;2022-10-13T15:28:15;15.95;;;7.53;;
49728;SDS011;35617;50.714;7.114;2022-10-13T15:30:41;12.43;;;7.20;;
49728;SDS011;35617;50.714;7.114;2022-10-13T15:33:06;13.23;;;7.25;;
49728;SDS011;35617;50.714;7.114;2022-10-13T15:35:32;13.75;;;7.43;;
49728;SDS011;35617;50.714;7.114;2022-10-13T15:37:57;13.68;;;7.88;;
49728;SDS011;35617;50.714;7.114;2022-10-13T15:40:23;13.95;;;7.65;;
49728;SDS011;35617;50.714;7.114;2022-10-13T15:42:49;10.80;;;7.07;;
49728;SDS011;35617;50.714;7.114;2022-10-13T15:45:14;11.80;;;7.63;;
49728;SDS011;35617;50.714;7.114;2022-10-13T15:47:40;12.10;;;7.35;;
49728;SDS011;35617;50.714;7.114;2022-10-13T15:50:06;14.27;;;7.82;;
49728;SDS011;35617;50.714;7.114;2022-10-13T15:52:35;15.63;;;8.45;;
49728;SDS011;35617;50.714;7.114;2022-10-13T15:55:03;14.15;;;8.50;;
49728;SDS011;35617;50.714;7.114;2022-10-13T15:57:30;19.00;;;8.38;;
49728;SDS011;35617;50.714;7.114;2022-10-13T15:59:55;15.32;;;8.60;;
49728;SDS011;35617;50.714;7.114;2022-10-13T16:02:21;12.10;;;7.88;;
49728;SDS011;35617;50.714;7.114;2022-10-13T16:04:48;15.93;;;8.82;;
49728;SDS011;35617;50.714;7.114;2022-10-13T16:07:13;12.27;;;8.57;;